sensor_id;sensor_type;location;lat;lon;timestamp;P1;durP1;ratioP1;P2;durP2;ratioP2
15295;SDS011;7749;49.964;7.890;2023-04-06T00:01:28;9.50;;;8.50;;
15295;SDS011;7749;49.964;7.890;2023-04-06T00:04:35;8.70;;;7.90;;
15295;SDS011;7749;49.964;7.890;2023-04-06T00:07:24;10.23;;;9.07;;
15295;SDS011;7749;49.964;7.890;2023-04-06T00:10:26;8.97;;;7.73;;
15295;SDS011;7749;49.964;7.890;2023-04-06T00:13:30;7.40;;;6.67;;
15295;SDS011;7749;49.964;7.890;2023-04-06T00:16:24;8.20;;;7.40;;
15295;SDS011;7749;49.964;7.890;2023-04-06T00:19:29;7.73;;;7.00;;
15295;SDS011;7749;49.964;7.890;2023-04-06T00:22:19;8.30;;;7.13;;
15295;SDS011;7749;49.964;7.890;2023-04-06T00:25:23;8.70;;;7.83;;
15295;SDS011;7749;49.964;7.890;2023-04-06T00:28:02;7.53;;;6.80;;
15295;SDS011;7749;49.964;7.890;2023-04-06T00:31:21;8.70;;;7.17;;
15295;SDS011;7749;49.964;7.890;2023-04-06T00:34:24;9.07;;;6.93;;
15295;SDS011;7749;49.964;7.890;2023-04-06T00:37:13;9.60;;;7.50;;
15295;SDS011;7749;49.964;7.890;2023-04-06T00:40:06;7.90;;;7.20;;
15295;SDS011;7749;49.964;7.890;2023-04-06T00:42:40;8.13;;;7.17;;
15295;SDS011;7749;49.964;7.890;2023-04-06T00:45:30;7.10;;;6.40;;
15295;SDS011;7749;49.964;7.890;2023-04-06T00:48:28;7.40;;;6.70;;
15295;SDS011;7749;49.964;7.890;2023-04-06T00:51:16;8.20;;;7.50;;
15295;SDS011;7749;49.964;7.890;2023-04-06T00:54:19;8.03;;;6.93;;
15295;SDS011;7749;49.964;7.890;2023-04-06T00:57:39;7.60;;;6.90;;
15295;SDS011;7749;49.964;7.890;2023-04-06T01:00:44;8.27;;;7.47;;
15295;SDS011;7749;49.964;7.890;2023-04-06T01:06:41;8.30;;;7.43;;
15295;SDS011;7749;49.964;7.890;2023-04-06T01:09:20;10.77;;;9.70;;
15295;SDS011;7749;49.964;7.890;2023-04-06T01:12:35;10.43;;;9.37;;
15295;SDS011;7749;49.964;7.890;2023-04-06T01:22:23;9.83;;;8.57;;
15295;SDS011;7749;49.964;7.890;2023-04-06T01:25:12;8.70;;;7.90;;
15295;SDS011;7749;49.964;7.890;2023-04-06T01:28:00;9.07;;;8.17;;
15295;SDS011;7749;49.964;7.890;2023-04-06T01:30:39;9.27;;;8.37;;
15295;SDS011;7749;49.964;7.890;2023-04-06T01:33:36;9.30;;;8.40;;
15295;SDS011;7749;49.964;7.890;2023-04-06T01:36:24;8.00;;;7.20;;
15295;SDS011;7749;49.964;7.890;2023-04-06T01:39:14;7.60;;;6.87;;
15295;SDS011;7749;49.964;7.890;2023-04-06T01:42:17;8.77;;;7.87;;
15295;SDS011;7749;49.964;7.890;2023-04-06T01:45:05;8.63;;;7.80;;
15295;SDS011;7749;49.964;7.890;2023-04-06T01:48:00;11.10;;;10.03;;
15295;SDS011;7749;49.964;7.890;2023-04-06T01:50:45;9.40;;;8.47;;
15295;SDS011;7749;49.964;7.890;2023-04-06T01:53:27;9.40;;;8.40;;
15295;SDS011;7749;49.964;7.890;2023-04-06T01:56:17;7.77;;;7.07;;
15295;SDS011;7749;49.964;7.890;2023-04-06T01:59:37;8.27;;;6.93;;
15295;SDS011;7749;49.964;7.890;2023-04-06T02:02:45;8.67;;;7.87;;
15295;SDS011;7749;49.964;7.890;2023-04-06T02:05:24;8.50;;;7.73;;
15295;SDS011;7749;49.964;7.890;2023-04-06T02:08:13;8.70;;;7.90;;
15295;SDS011;7749;49.964;7.890;2023-04-06T02:11:38;11.60;;;10.60;;
15295;SDS011;7749;49.964;7.890;2023-04-06T02:14:27;10.47;;;9.57;;
15295;SDS011;7749;49.964;7.890;2023-04-06T02:17:11;10.23;;;9.07;;
15295;SDS011;7749;49.964;7.890;2023-04-06T02:20:11;10.20;;;9.20;;
15295;SDS011;7749;49.964;7.890;2023-04-06T02:23:06;9.00;;;8.10;;
15295;SDS011;7749;49.964;7.890;2023-04-06T02:26:08;9.87;;;8.93;;
15295;SDS011;7749;49.964;7.890;2023-04-06T02:29:12;9.67;;;8.77;;
15295;SDS011;7749;49.964;7.890;2023-04-06T02:32:00;9.23;;;8.43;;
15295;SDS011;7749;49.964;7.890;2023-04-06T02:34:57;9.13;;;8.23;;
15295;SDS011;7749;49.964;7.890;2023-04-06T02:37:58;7.40;;;6.70;;
15295;SDS011;7749;49.964;7.890;2023-04-06T02:41:08;8.90;;;8.10;;
15295;SDS011;7749;49.964;7.890;2023-04-06T02:44:08;10.43;;;9.43;;
15295;SDS011;7749;49.964;7.890;2023-04-06T02:46:55;11.43;;;10.30;;
15295;SDS011;7749;49.964;7.890;2023-04-06T02:49:56;9.60;;;8.70;;
15295;SDS011;7749;49.964;7.890;2023-04-06T02:52:26;8.03;;;7.33;;
15295;SDS011;7749;49.964;7.890;2023-04-06T02:54:54;8.00;;;7.30;;
15295;SDS011;7749;49.964;7.890;2023-04-06T02:57:22;17.40;;;15.63;;
15295;SDS011;7749;49.964;7.890;2023-04-06T02:59:53;9.53;;;8.67;;
15295;SDS011;7749;49.964;7.890;2023-04-06T03:02:23;8.50;;;7.77;;
15295;SDS011;7749;49.964;7.890;2023-04-06T03:04:54;8.07;;;6.63;;
15295;SDS011;7749;49.964;7.890;2023-04-06T03:07:21;8.20;;;7.40;;
15295;SDS011;7749;49.964;7.890;2023-04-06T03:09:51;8.27;;;7.33;;
15295;SDS011;7749;49.964;7.890;2023-04-06T03:12:19;8.27;;;7.47;;
15295;SDS011;7749;49.964;7.890;2023-04-06T03:14:46;8.23;;;6.87;;
15295;SDS011;7749;49.964;7.890;2023-04-06T03:17:14;8.30;;;7.50;;
15295;SDS011;7749;49.964;7.890;2023-04-06T03:19:42;8.20;;;7.50;;
15295;SDS011;7749;49.964;7.890;2023-04-06T03:22:09;7.60;;;6.83;;
15295;SDS011;7749;49.964;7.890;2023-04-06T03:24:37;7.30;;;6.60;;
15295;SDS011;7749;49.964;7.890;2023-04-06T03:27:08;7.90;;;7.20;;
15295;SDS011;7749;49.964;7.890;2023-04-06T03:29:36;8.90;;;6.93;;
15295;SDS011;7749;49.964;7.890;2023-04-06T03:32:04;9.23;;;7.80;;
15295;SDS011;7749;49.964;7.890;2023-04-06T03:34:34;8.03;;;7.30;;
15295;SDS011;7749;49.964;7.890;2023-04-06T03:37:02;8.23;;;7.43;;
15295;SDS011;7749;49.964;7.890;2023-04-06T03:39:37;9.13;;;7.60;;
15295;SDS011;7749;49.964;7.890;2023-04-06T03:42:04;8.00;;;7.20;;
15295;SDS011;7749;49.964;7.890;2023-04-06T03:44:32;8.37;;;7.47;;
15295;SDS011;7749;49.964;7.890;2023-04-06T03:47:00;8.40;;;7.30;;
15295;SDS011;7749;49.964;7.890;2023-04-06T03:49:27;7.93;;;7.20;;
15295;SDS011;7749;49.964;7.890;2023-04-06T03:51:56;8.53;;;7.30;;
15295;SDS011;7749;49.964;7.890;2023-04-06T03:54:23;8.37;;;7.57;;
15295;SDS011;7749;49.964;7.890;2023-04-06T03:56:51;8.40;;;7.60;;
15295;SDS011;7749;49.964;7.890;2023-04-06T03:59:19;8.60;;;7.47;;
15295;SDS011;7749;49.964;7.890;2023-04-06T04:01:47;9.93;;;8.50;;
15295;SDS011;7749;49.964;7.890;2023-04-06T04:04:15;9.03;;;7.73;;
15295;SDS011;7749;49.964;7.890;2023-04-06T04:06:42;8.90;;;8.10;;
15295;SDS011;7749;49.964;7.890;2023-04-06T04:09:10;8.60;;;7.80;;
15295;SDS011;7749;49.964;7.890;2023-04-06T04:11:38;8.70;;;7.90;;
15295;SDS011;7749;49.964;7.890;2023-04-06T04:14:07;9.60;;;8.07;;
15295;SDS011;7749;49.964;7.890;2023-04-06T04:16:34;8.27;;;7.47;;
15295;SDS011;7749;49.964;7.890;2023-04-06T04:19:02;9.83;;;8.93;;
15295;SDS011;7749;49.964;7.890;2023-04-06T04:21:30;9.97;;;8.83;;
15295;SDS011;7749;49.964;7.890;2023-04-06T04:23:58;9.30;;;8.40;;
15295;SDS011;7749;49.964;7.890;2023-04-06T04:26:26;11.03;;;9.93;;
15295;SDS011;7749;49.964;7.890;2023-04-06T04:28:54;10.23;;;9.13;;
15295;SDS011;7749;49.964;7.890;2023-04-06T04:31:22;11.17;;;9.47;;
15295;SDS011;7749;49.964;7.890;2023-04-06T04:33:53;9.97;;;8.93;;
15295;SDS011;7749;49.964;7.890;2023-04-06T04:36:20;12.17;;;9.97;;
15295;SDS011;7749;49.964;7.890;2023-04-06T04:38:48;11.97;;;10.20;;
15295;SDS011;7749;49.964;7.890;2023-04-06T04:41:16;11.37;;;10.10;;
15295;SDS011;7749;49.964;7.890;2023-04-06T04:43:44;11.40;;;10.13;;
15295;SDS011;7749;49.964;7.890;2023-04-06T04:46:12;10.57;;;9.57;;
15295;SDS011;7749;49.964;7.890;2023-04-06T04:48:40;11.83;;;9.53;;
15295;SDS011;7749;49.964;7.890;2023-04-06T04:51:07;10.73;;;9.60;;
15295;SDS011;7749;49.964;7.890;2023-04-06T04:53:35;12.07;;;10.97;;
15295;SDS011;7749;49.964;7.890;2023-04-06T04:56:03;10.53;;;9.53;;
15295;SDS011;7749;49.964;7.890;2023-04-06T04:58:30;11.03;;;9.93;;
15295;SDS011;7749;49.964;7.890;2023-04-06T05:00:58;10.63;;;9.50;;
15295;SDS011;7749;49.964;7.890;2023-04-06T05:03:26;11.27;;;9.60;;
15295;SDS011;7749;49.964;7.890;2023-04-06T05:05:54;11.10;;;9.67;;
15295;SDS011;7749;49.964;7.890;2023-04-06T05:08:22;11.13;;;10.03;;
15295;SDS011;7749;49.964;7.890;2023-04-06T05:10:50;10.87;;;9.83;;
15295;SDS011;7749;49.964;7.890;2023-04-06T05:13:18;11.97;;;10.33;;
15295;SDS011;7749;49.964;7.890;2023-04-06T05:15:46;11.07;;;9.73;;
15295;SDS011;7749;49.964;7.890;2023-04-06T05:18:13;12.23;;;11.03;;
15295;SDS011;7749;49.964;7.890;2023-04-06T05:20:42;12.70;;;11.50;;
15295;SDS011;7749;49.964;7.890;2023-04-06T05:23:10;11.40;;;10.27;;
15295;SDS011;7749;49.964;7.890;2023-04-06T05:25:38;11.60;;;10.60;;
15295;SDS011;7749;49.964;7.890;2023-04-06T05:28:05;11.87;;;10.70;;
15295;SDS011;7749;49.964;7.890;2023-04-06T05:30:33;12.77;;;11.40;;
15295;SDS011;7749;49.964;7.890;2023-04-06T05:33:03;13.53;;;12.10;;
15295;SDS011;7749;49.964;7.890;2023-04-06T05:35:34;14.13;;;11.67;;
15295;SDS011;7749;49.964;7.890;2023-04-06T05:38:02;18.23;;;15.37;;
15295;SDS011;7749;49.964;7.890;2023-04-06T05:40:30;27.03;;;18.93;;
15295;SDS011;7749;49.964;7.890;2023-04-06T05:42:58;21.90;;;18.67;;
15295;SDS011;7749;49.964;7.890;2023-04-06T05:45:29;30.90;;;25.37;;
15295;SDS011;7749;49.964;7.890;2023-04-06T05:47:58;20.13;;;15.90;;
15295;SDS011;7749;49.964;7.890;2023-04-06T05:50:26;27.87;;;21.53;;
15295;SDS011;7749;49.964;7.890;2023-04-06T05:52:54;24.33;;;19.20;;
15295;SDS011;7749;49.964;7.890;2023-04-06T05:55:21;25.87;;;23.27;;
15295;SDS011;7749;49.964;7.890;2023-04-06T05:57:49;27.10;;;22.47;;
15295;SDS011;7749;49.964;7.890;2023-04-06T06:00:17;18.90;;;16.47;;
15295;SDS011;7749;49.964;7.890;2023-04-06T06:02:45;14.70;;;13.20;;
15295;SDS011;7749;49.964;7.890;2023-04-06T06:05:12;14.63;;;13.13;;
15295;SDS011;7749;49.964;7.890;2023-04-06T06:07:40;12.33;;;11.03;;
15295;SDS011;7749;49.964;7.890;2023-04-06T06:10:08;13.50;;;12.10;;
15295;SDS011;7749;49.964;7.890;2023-04-06T06:12:36;12.07;;;10.87;;
15295;SDS011;7749;49.964;7.890;2023-04-06T06:15:04;14.63;;;11.17;;
15295;SDS011;7749;49.964;7.890;2023-04-06T06:17:32;17.77;;;15.87;;
15295;SDS011;7749;49.964;7.890;2023-04-06T06:20:07;12.70;;;11.40;;
15295;SDS011;7749;49.964;7.890;2023-04-06T06:22:35;12.63;;;10.57;;
15295;SDS011;7749;49.964;7.890;2023-04-06T06:25:06;12.60;;;10.70;;
15295;SDS011;7749;49.964;7.890;2023-04-06T06:27:34;12.07;;;10.80;;
15295;SDS011;7749;49.964;7.890;2023-04-06T06:30:02;11.77;;;10.57;;
15295;SDS011;7749;49.964;7.890;2023-04-06T06:32:31;12.30;;;11.00;;
15295;SDS011;7749;49.964;7.890;2023-04-06T06:34:59;11.87;;;10.67;;
15295;SDS011;7749;49.964;7.890;2023-04-06T06:37:27;11.90;;;10.63;;
15295;SDS011;7749;49.964;7.890;2023-04-06T06:39:57;12.47;;;9.73;;
15295;SDS011;7749;49.964;7.890;2023-04-06T06:42:27;11.47;;;10.37;;
15295;SDS011;7749;49.964;7.890;2023-04-06T06:44:55;10.67;;;9.67;;
15295;SDS011;7749;49.964;7.890;2023-04-06T06:47:23;11.53;;;10.13;;
15295;SDS011;7749;49.964;7.890;2023-04-06T06:49:50;11.17;;;10.07;;
15295;SDS011;7749;49.964;7.890;2023-04-06T06:52:18;13.63;;;10.17;;
15295;SDS011;7749;49.964;7.890;2023-04-06T06:54:46;11.17;;;9.77;;
15295;SDS011;7749;49.964;7.890;2023-04-06T06:57:14;10.73;;;9.73;;
15295;SDS011;7749;49.964;7.890;2023-04-06T06:59:55;10.63;;;9.63;;
15295;SDS011;7749;49.964;7.890;2023-04-06T07:02:23;11.53;;;10.20;;
15295;SDS011;7749;49.964;7.890;2023-04-06T07:04:50;11.30;;;10.03;;
15295;SDS011;7749;49.964;7.890;2023-04-06T07:07:21;11.43;;;9.87;;
15295;SDS011;7749;49.964;7.890;2023-04-06T07:09:49;14.10;;;10.30;;
15295;SDS011;7749;49.964;7.890;2023-04-06T07:12:17;12.10;;;10.80;;
15295;SDS011;7749;49.964;7.890;2023-04-06T07:14:45;11.40;;;10.27;;
15295;SDS011;7749;49.964;7.890;2023-04-06T07:17:13;11.83;;;10.63;;
15295;SDS011;7749;49.964;7.890;2023-04-06T07:19:40;12.43;;;10.60;;
15295;SDS011;7749;49.964;7.890;2023-04-06T07:22:10;13.07;;;10.60;;
15295;SDS011;7749;49.964;7.890;2023-04-06T07:24:38;11.13;;;9.97;;
15295;SDS011;7749;49.964;7.890;2023-04-06T07:27:06;11.97;;;10.87;;
15295;SDS011;7749;49.964;7.890;2023-04-06T07:29:34;12.37;;;10.27;;
15295;SDS011;7749;49.964;7.890;2023-04-06T07:32:02;11.37;;;10.27;;
15295;SDS011;7749;49.964;7.890;2023-04-06T07:34:30;11.00;;;9.87;;
15295;SDS011;7749;49.964;7.890;2023-04-06T07:36:57;14.00;;;10.33;;
15295;SDS011;7749;49.964;7.890;2023-04-06T07:39:29;11.80;;;9.63;;
15295;SDS011;7749;49.964;7.890;2023-04-06T07:41:58;11.40;;;10.20;;
15295;SDS011;7749;49.964;7.890;2023-04-06T07:44:25;11.53;;;10.00;;
15295;SDS011;7749;49.964;7.890;2023-04-06T07:46:56;10.93;;;9.30;;
15295;SDS011;7749;49.964;7.890;2023-04-06T07:49:25;10.43;;;9.43;;
15295;SDS011;7749;49.964;7.890;2023-04-06T07:51:53;9.90;;;9.00;;
15295;SDS011;7749;49.964;7.890;2023-04-06T07:54:21;10.63;;;9.53;;
15295;SDS011;7749;49.964;7.890;2023-04-06T07:56:54;11.47;;;9.83;;
15295;SDS011;7749;49.964;7.890;2023-04-06T07:59:22;12.97;;;10.43;;
15295;SDS011;7749;49.964;7.890;2023-04-06T08:01:49;11.03;;;9.87;;
15295;SDS011;7749;49.964;7.890;2023-04-06T08:04:17;11.83;;;9.60;;
15295;SDS011;7749;49.964;7.890;2023-04-06T08:06:45;13.10;;;9.63;;
15295;SDS011;7749;49.964;7.890;2023-04-06T08:09:12;10.37;;;9.23;;
15295;SDS011;7749;49.964;7.890;2023-04-06T08:11:40;11.77;;;10.13;;
15295;SDS011;7749;49.964;7.890;2023-04-06T08:14:09;12.83;;;9.60;;
15295;SDS011;7749;49.964;7.890;2023-04-06T08:16:37;10.97;;;9.97;;
15295;SDS011;7749;49.964;7.890;2023-04-06T08:19:05;10.10;;;9.10;;
15295;SDS011;7749;49.964;7.890;2023-04-06T08:21:36;9.97;;;9.03;;
15295;SDS011;7749;49.964;7.890;2023-04-06T08:24:04;9.83;;;8.53;;
15295;SDS011;7749;49.964;7.890;2023-04-06T08:26:34;12.03;;;9.77;;
15295;SDS011;7749;49.964;7.890;2023-04-06T08:29:02;10.53;;;9.23;;
15295;SDS011;7749;49.964;7.890;2023-04-06T08:31:31;10.47;;;8.47;;
15295;SDS011;7749;49.964;7.890;2023-04-06T08:33:58;9.47;;;8.23;;
15295;SDS011;7749;49.964;7.890;2023-04-06T08:36:29;10.97;;;9.33;;
15295;SDS011;7749;49.964;7.890;2023-04-06T08:38:58;11.47;;;9.10;;
15295;SDS011;7749;49.964;7.890;2023-04-06T08:41:29;13.60;;;9.17;;
15295;SDS011;7749;49.964;7.890;2023-04-06T08:46:26;11.07;;;9.83;;
15295;SDS011;7749;49.964;7.890;2023-04-06T08:48:58;12.00;;;9.70;;
15295;SDS011;7749;49.964;7.890;2023-04-06T08:51:27;14.10;;;10.03;;
15295;SDS011;7749;49.964;7.890;2023-04-06T08:53:58;12.13;;;10.77;;
15295;SDS011;7749;49.964;7.890;2023-04-06T08:56:27;11.27;;;9.37;;
15295;SDS011;7749;49.964;7.890;2023-04-06T08:58:58;10.80;;;9.67;;
15295;SDS011;7749;49.964;7.890;2023-04-06T09:01:27;13.20;;;9.90;;
15295;SDS011;7749;49.964;7.890;2023-04-06T09:03:57;15.50;;;10.30;;
15295;SDS011;7749;49.964;7.890;2023-04-06T09:06:26;10.53;;;9.43;;
15295;SDS011;7749;49.964;7.890;2023-04-06T09:08:54;10.07;;;9.03;;
15295;SDS011;7749;49.964;7.890;2023-04-06T09:11:22;11.10;;;9.70;;
15295;SDS011;7749;49.964;7.890;2023-04-06T09:16:19;14.20;;;9.70;;
15295;SDS011;7749;49.964;7.890;2023-04-06T09:18:47;11.40;;;8.93;;
15295;SDS011;7749;49.964;7.890;2023-04-06T09:21:16;10.10;;;9.10;;
15295;SDS011;7749;49.964;7.890;2023-04-06T09:23:57;14.13;;;9.70;;
15295;SDS011;7749;49.964;7.890;2023-04-06T09:26:26;11.70;;;9.30;;
15295;SDS011;7749;49.964;7.890;2023-04-06T09:28:55;12.53;;;9.63;;
15295;SDS011;7749;49.964;7.890;2023-04-06T09:31:27;11.47;;;9.63;;
15295;SDS011;7749;49.964;7.890;2023-04-06T09:33:57;10.80;;;8.67;;
15295;SDS011;7749;49.964;7.890;2023-04-06T09:39:02;11.53;;;9.37;;
15295;SDS011;7749;49.964;7.890;2023-04-06T09:41:33;10.07;;;8.90;;
15295;SDS011;7749;49.964;7.890;2023-04-06T09:44:08;10.50;;;8.40;;
15295;SDS011;7749;49.964;7.890;2023-04-06T09:46:38;9.97;;;7.97;;
15295;SDS011;7749;49.964;7.890;2023-04-06T09:49:27;9.80;;;8.80;;
15295;SDS011;7749;49.964;7.890;2023-04-06T09:51:58;11.67;;;9.40;;
15295;SDS011;7749;49.964;7.890;2023-04-06T09:54:28;12.03;;;9.10;;
15295;SDS011;7749;49.964;7.890;2023-04-06T10:05:43;8.87;;;7.97;;
15295;SDS011;7749;49.964;7.890;2023-04-06T10:08:17;10.30;;;7.57;;
15295;SDS011;7749;49.964;7.890;2023-04-06T10:10:47;10.03;;;7.77;;
15295;SDS011;7749;49.964;7.890;2023-04-06T10:13:17;10.27;;;8.30;;
15295;SDS011;7749;49.964;7.890;2023-04-06T10:15:46;8.70;;;7.80;;
15295;SDS011;7749;49.964;7.890;2023-04-06T10:18:15;9.90;;;7.70;;
15295;SDS011;7749;49.964;7.890;2023-04-06T10:20:45;11.20;;;8.87;;
15295;SDS011;7749;49.964;7.890;2023-04-06T10:25:57;10.20;;;8.80;;
15295;SDS011;7749;49.964;7.890;2023-04-06T10:28:30;19.73;;;9.27;;
15295;SDS011;7749;49.964;7.890;2023-04-06T10:31:00;12.23;;;9.20;;
15295;SDS011;7749;49.964;7.890;2023-04-06T10:33:30;9.77;;;8.60;;
15295;SDS011;7749;49.964;7.890;2023-04-06T10:36:09;11.20;;;8.03;;
15295;SDS011;7749;49.964;7.890;2023-04-06T10:38:53;11.70;;;7.60;;
15295;SDS011;7749;49.964;7.890;2023-04-06T10:41:22;9.33;;;7.60;;
15295;SDS011;7749;49.964;7.890;2023-04-06T10:43:56;9.60;;;7.53;;
15295;SDS011;7749;49.964;7.890;2023-04-06T10:46:32;9.70;;;8.70;;
15295;SDS011;7749;49.964;7.890;2023-04-06T10:49:12;11.47;;;8.10;;
15295;SDS011;7749;49.964;7.890;2023-04-06T10:51:42;9.00;;;8.00;;
15295;SDS011;7749;49.964;7.890;2023-04-06T10:54:10;9.07;;;8.00;;
15295;SDS011;7749;49.964;7.890;2023-04-06T10:56:39;9.70;;;8.17;;
15295;SDS011;7749;49.964;7.890;2023-04-06T10:59:07;10.27;;;8.23;;
15295;SDS011;7749;49.964;7.890;2023-04-06T11:01:35;11.17;;;7.67;;
15295;SDS011;7749;49.964;7.890;2023-04-06T11:04:02;10.23;;;9.13;;
15295;SDS011;7749;49.964;7.890;2023-04-06T11:06:31;10.20;;;7.90;;
15295;SDS011;7749;49.964;7.890;2023-04-06T11:08:59;11.43;;;8.23;;
15295;SDS011;7749;49.964;7.890;2023-04-06T11:11:27;12.77;;;8.13;;
15295;SDS011;7749;49.964;7.890;2023-04-06T11:13:59;10.27;;;8.32;;
15295;SDS011;7749;49.964;7.890;2023-04-06T11:16:29;10.18;;;8.35;;
15295;SDS011;7749;49.964;7.890;2023-04-06T11:19:00;10.60;;;8.35;;
15295;SDS011;7749;49.964;7.890;2023-04-06T11:21:41;9.25;;;7.88;;
15295;SDS011;7749;49.964;7.890;2023-04-06T11:24:20;10.70;;;8.48;;
15295;SDS011;7749;49.964;7.890;2023-04-06T11:26:52;10.57;;;8.32;;
15295;SDS011;7749;49.964;7.890;2023-04-06T11:29:22;9.40;;;8.38;;
15295;SDS011;7749;49.964;7.890;2023-04-06T11:31:58;8.52;;;7.63;;
15295;SDS011;7749;49.964;7.890;2023-04-06T11:34:28;11.25;;;8.27;;
15295;SDS011;7749;49.964;7.890;2023-04-06T11:36:57;9.93;;;7.63;;
15295;SDS011;7749;49.964;7.890;2023-04-06T11:39:29;9.98;;;8.88;;
15295;SDS011;7749;49.964;7.890;2023-04-06T11:41:58;9.43;;;8.30;;
15295;SDS011;7749;49.964;7.890;2023-04-06T11:44:37;9.00;;;7.93;;
15295;SDS011;7749;49.964;7.890;2023-04-06T11:47:07;9.85;;;8.85;;
15295;SDS011;7749;49.964;7.890;2023-04-06T11:49:38;10.68;;;9.55;;
15295;SDS011;7749;49.964;7.890;2023-04-06T11:52:16;12.98;;;9.60;;
15295;SDS011;7749;49.964;7.890;2023-04-06T11:54:47;11.57;;;9.43;;
15295;SDS011;7749;49.964;7.890;2023-04-06T11:57:16;9.70;;;8.73;;
15295;SDS011;7749;49.964;7.890;2023-04-06T11:59:44;10.88;;;9.00;;
15295;SDS011;7749;49.964;7.890;2023-04-06T12:02:12;10.85;;;9.70;;
15295;SDS011;7749;49.964;7.890;2023-04-06T12:04:40;11.00;;;9.90;;
15295;SDS011;7749;49.964;7.890;2023-04-06T12:07:08;10.48;;;7.97;;
15295;SDS011;7749;49.964;7.890;2023-04-06T12:09:35;11.98;;;8.40;;
15295;SDS011;7749;49.964;7.890;2023-04-06T12:12:04;10.65;;;8.15;;
15295;SDS011;7749;49.964;7.890;2023-04-06T12:14:31;7.28;;;5.70;;
15295;SDS011;7749;49.964;7.890;2023-04-06T12:16:59;7.78;;;5.68;;
15295;SDS011;7749;49.964;7.890;2023-04-06T12:19:27;7.78;;;5.38;;
15295;SDS011;7749;49.964;7.890;2023-04-06T12:21:57;7.28;;;5.30;;
15295;SDS011;7749;49.964;7.890;2023-04-06T12:24:25;7.10;;;5.07;;
15295;SDS011;7749;49.964;7.890;2023-04-06T12:26:52;5.40;;;4.90;;
15295;SDS011;7749;49.964;7.890;2023-04-06T12:29:35;6.25;;;5.00;;
15295;SDS011;7749;49.964;7.890;2023-04-06T12:32:03;6.68;;;5.43;;
15295;SDS011;7749;49.964;7.890;2023-04-06T12:34:32;6.90;;;5.70;;
15295;SDS011;7749;49.964;7.890;2023-04-06T12:37:00;6.47;;;5.45;;
15295;SDS011;7749;49.964;7.890;2023-04-06T12:39:27;8.80;;;6.40;;
15295;SDS011;7749;49.964;7.890;2023-04-06T12:41:55;5.78;;;5.15;;
15295;SDS011;7749;49.964;7.890;2023-04-06T12:44:24;8.77;;;6.10;;
15295;SDS011;7749;49.964;7.890;2023-04-06T12:46:53;9.38;;;6.07;;
15295;SDS011;7749;49.964;7.890;2023-04-06T12:49:21;7.55;;;5.82;;
15295;SDS011;7749;49.964;7.890;2023-04-06T12:51:50;6.47;;;5.65;;
15295;SDS011;7749;49.964;7.890;2023-04-06T12:54:17;8.70;;;6.18;;
15295;SDS011;7749;49.964;7.890;2023-04-06T12:56:45;7.93;;;5.97;;
15295;SDS011;7749;49.964;7.890;2023-04-06T12:59:15;6.20;;;5.60;;
15295;SDS011;7749;49.964;7.890;2023-04-06T13:01:43;6.82;;;6.10;;
15295;SDS011;7749;49.964;7.890;2023-04-06T13:04:11;6.75;;;5.72;;
15295;SDS011;7749;49.964;7.890;2023-04-06T13:06:39;6.65;;;5.68;;
15295;SDS011;7749;49.964;7.890;2023-04-06T13:09:07;7.18;;;5.93;;
15295;SDS011;7749;49.964;7.890;2023-04-06T13:11:35;7.07;;;5.30;;
15295;SDS011;7749;49.964;7.890;2023-04-06T13:14:02;6.78;;;6.00;;
15295;SDS011;7749;49.964;7.890;2023-04-06T13:16:30;7.43;;;5.88;;
15295;SDS011;7749;49.964;7.890;2023-04-06T13:18:59;6.57;;;5.90;;
15295;SDS011;7749;49.964;7.890;2023-04-06T13:21:29;6.47;;;5.78;;
15295;SDS011;7749;49.964;7.890;2023-04-06T13:23:57;7.05;;;5.55;;
15295;SDS011;7749;49.964;7.890;2023-04-06T13:26:25;7.05;;;5.50;;
15295;SDS011;7749;49.964;7.890;2023-04-06T13:28:53;7.45;;;5.75;;
15295;SDS011;7749;49.964;7.890;2023-04-06T13:31:23;8.75;;;5.93;;
15295;SDS011;7749;49.964;7.890;2023-04-06T13:33:50;9.50;;;5.85;;
15295;SDS011;7749;49.964;7.890;2023-04-06T13:36:18;7.80;;;5.65;;
15295;SDS011;7749;49.964;7.890;2023-04-06T13:38:46;10.07;;;5.68;;
15295;SDS011;7749;49.964;7.890;2023-04-06T13:41:20;9.45;;;6.45;;
15295;SDS011;7749;49.964;7.890;2023-04-06T13:43:48;8.48;;;6.00;;
15295;SDS011;7749;49.964;7.890;2023-04-06T13:46:17;6.20;;;5.60;;
15295;SDS011;7749;49.964;7.890;2023-04-06T13:48:44;7.28;;;5.85;;
15295;SDS011;7749;49.964;7.890;2023-04-06T13:51:15;9.02;;;5.90;;
15295;SDS011;7749;49.964;7.890;2023-04-06T13:53:42;6.78;;;5.88;;
15295;SDS011;7749;49.964;7.890;2023-04-06T13:56:10;7.15;;;5.32;;
15295;SDS011;7749;49.964;7.890;2023-04-06T13:58:38;8.00;;;5.93;;
15295;SDS011;7749;49.964;7.890;2023-04-06T14:01:06;6.27;;;5.53;;
15295;SDS011;7749;49.964;7.890;2023-04-06T14:03:37;8.07;;;6.17;;
15295;SDS011;7749;49.964;7.890;2023-04-06T14:06:10;5.87;;;5.00;;
15295;SDS011;7749;49.964;7.890;2023-04-06T14:08:43;6.50;;;5.60;;
15295;SDS011;7749;49.964;7.890;2023-04-06T14:11:11;7.00;;;5.63;;
15295;SDS011;7749;49.964;7.890;2023-04-06T14:13:40;7.23;;;6.20;;
15295;SDS011;7749;49.964;7.890;2023-04-06T14:16:09;7.40;;;5.53;;
15295;SDS011;7749;49.964;7.890;2023-04-06T14:18:36;7.33;;;6.13;;
15295;SDS011;7749;49.964;7.890;2023-04-06T14:21:04;8.47;;;6.33;;
15295;SDS011;7749;49.964;7.890;2023-04-06T14:23:33;7.57;;;5.80;;
15295;SDS011;7749;49.964;7.890;2023-04-06T14:26:06;6.63;;;5.90;;
15295;SDS011;7749;49.964;7.890;2023-04-06T14:28:35;7.10;;;5.60;;
15295;SDS011;7749;49.964;7.890;2023-04-06T14:31:09;7.60;;;5.53;;
15295;SDS011;7749;49.964;7.890;2023-04-06T14:33:39;8.37;;;5.90;;
15295;SDS011;7749;49.964;7.890;2023-04-06T14:36:07;7.90;;;5.93;;
15295;SDS011;7749;49.964;7.890;2023-04-06T14:38:36;6.97;;;5.47;;
15295;SDS011;7749;49.964;7.890;2023-04-06T14:41:08;5.20;;;3.30;;
15295;SDS011;7749;49.964;7.890;2023-04-06T14:43:45;7.10;;;4.10;;
15295;SDS011;7749;49.964;7.890;2023-04-06T14:46:16;4.67;;;3.80;;
15295;SDS011;7749;49.964;7.890;2023-04-06T14:48:44;4.07;;;3.53;;
15295;SDS011;7749;49.964;7.890;2023-04-06T14:51:12;5.23;;;4.20;;
15295;SDS011;7749;49.964;7.890;2023-04-06T14:53:40;7.43;;;5.53;;
15295;SDS011;7749;49.964;7.890;2023-04-06T14:56:07;10.20;;;6.60;;
15295;SDS011;7749;49.964;7.890;2023-04-06T14:58:35;7.60;;;6.13;;
15295;SDS011;7749;49.964;7.890;2023-04-06T15:01:04;9.10;;;5.43;;
15295;SDS011;7749;49.964;7.890;2023-04-06T15:03:33;7.33;;;5.37;;
15295;SDS011;7749;49.964;7.890;2023-04-06T15:06:01;5.73;;;5.00;;
15295;SDS011;7749;49.964;7.890;2023-04-06T15:08:29;6.70;;;5.20;;
15295;SDS011;7749;49.964;7.890;2023-04-06T15:10:58;8.07;;;5.40;;
15295;SDS011;7749;49.964;7.890;2023-04-06T15:13:26;6.17;;;4.93;;
15295;SDS011;7749;49.964;7.890;2023-04-06T15:15:54;5.70;;;4.70;;
15295;SDS011;7749;49.964;7.890;2023-04-06T15:18:22;5.83;;;4.70;;
15295;SDS011;7749;49.964;7.890;2023-04-06T15:20:50;6.67;;;4.47;;
15295;SDS011;7749;49.964;7.890;2023-04-06T15:23:17;5.73;;;4.53;;
15295;SDS011;7749;49.964;7.890;2023-04-06T15:25:46;6.87;;;4.50;;
15295;SDS011;7749;49.964;7.890;2023-04-06T15:28:14;6.50;;;4.67;;
15295;SDS011;7749;49.964;7.890;2023-04-06T15:30:41;5.17;;;4.10;;
15295;SDS011;7749;49.964;7.890;2023-04-06T15:33:09;6.93;;;4.70;;
15295;SDS011;7749;49.964;7.890;2023-04-06T15:35:37;5.07;;;3.97;;
15295;SDS011;7749;49.964;7.890;2023-04-06T15:38:09;5.13;;;4.63;;
15295;SDS011;7749;49.964;7.890;2023-04-06T15:43:12;6.57;;;4.27;;
15295;SDS011;7749;49.964;7.890;2023-04-06T15:45:41;8.07;;;5.43;;
15295;SDS011;7749;49.964;7.890;2023-04-06T15:48:08;5.67;;;4.57;;
15295;SDS011;7749;49.964;7.890;2023-04-06T15:50:36;4.87;;;3.87;;
15295;SDS011;7749;49.964;7.890;2023-04-06T15:53:04;5.97;;;4.30;;
15295;SDS011;7749;49.964;7.890;2023-04-06T15:55:33;7.33;;;4.27;;
15295;SDS011;7749;49.964;7.890;2023-04-06T15:58:01;6.43;;;4.23;;
15295;SDS011;7749;49.964;7.890;2023-04-06T16:00:28;5.57;;;4.47;;